Terminal Aerodrome Forecast
Issued by NWS

Home | Current Version | Previous Version | Text Only | Print | Product List | Glossary On
Versions: 1 2 3 4 5 6 7 8 9 10 11 12 13 14 15 16 17
000
FTUS43 KILX 221100
TAFBMI
TAF
KBMI 221140Z 2212/2312 14013KT P6SM VCSH OVC035
     FM221500 13015KT 6SM -RA SCT015 OVC030
     FM221700 13016G21KT 3SM -RA BR OVC008
     FM221900 13015KT 1SM -RA BR OVC004
     FM230300 13016KT 2SM -RA BR OVC003=

USA.gov is the U.S. government's official web portal to all federal, state and local government web resources and services.